createdAt,value
2023-05-05T00:02:41.345Z,7.30
2023-05-05T00:05:47.029Z,7.38
2023-05-05T00:08:48.768Z,7.85
2023-05-05T00:11:51.097Z,6.78
2023-05-05T00:14:52.849Z,7.53
2023-05-05T00:17:55.291Z,7.03
2023-05-05T00:20:58.606Z,6.63
2023-05-05T00:24:01.861Z,7.47
2023-05-05T00:27:03.841Z,7.75
2023-05-05T00:30:07.130Z,7.40
2023-05-05T00:33:12.096Z,6.82
2023-05-05T00:36:16.071Z,6.18
2023-05-05T00:39:20.831Z,7.15
2023-05-05T00:42:26.234Z,7.35
2023-05-05T00:45:29.325Z,6.38
2023-05-05T00:48:32.100Z,6.25
2023-05-05T00:51:35.726Z,6.25
2023-05-05T00:54:38.900Z,6.13
2023-05-05T00:57:43.464Z,5.50
2023-05-05T01:00:46.146Z,5.78
2023-05-05T01:03:48.155Z,5.20
2023-05-05T01:06:59.430Z,4.47
2023-05-05T01:10:19.657Z,4.88
2023-05-05T01:13:32.363Z,4.88
2023-05-05T01:16:36.234Z,4.80
2023-05-05T01:19:58.556Z,4.68
2023-05-05T01:23:05.999Z,4.70
2023-05-05T01:26:27.277Z,4.70
2023-05-05T01:30:03.450Z,4.32
2023-05-05T01:33:14.324Z,4.72
2023-05-05T01:36:23.456Z,5.13
2023-05-05T01:39:30.396Z,4.90
2023-05-05T01:42:33.899Z,4.82
2023-05-05T01:45:39.397Z,5.10
2023-05-05T01:48:44.150Z,4.97
2023-05-05T01:51:47.120Z,4.82
2023-05-05T01:54:52.798Z,4.43
2023-05-05T01:57:57.626Z,4.60
2023-05-05T02:01:01.046Z,4.60
2023-05-05T02:04:06.819Z,4.95
2023-05-05T02:07:10.192Z,4.18
2023-05-05T02:10:14.966Z,4.65
2023-05-05T02:13:20.220Z,4.45
2023-05-05T02:16:24.696Z,4.30
2023-05-05T02:19:31.968Z,3.25
2023-05-05T02:22:35.379Z,4.32
2023-05-05T02:25:40.121Z,3.78
2023-05-05T02:28:48.188Z,3.78
2023-05-05T02:31:53.655Z,3.63
2023-05-05T02:34:59.360Z,3.35
2023-05-05T02:38:03.995Z,3.65
2023-05-05T02:41:13.694Z,3.40
2023-05-05T02:44:17.152Z,3.60
2023-05-05T02:47:20.465Z,3.50
2023-05-05T02:50:24.042Z,3.15
2023-05-05T02:53:27.048Z,3.75
2023-05-05T02:56:39.482Z,3.70
2023-05-05T02:59:50.437Z,3.20
2023-05-05T03:03:07.674Z,3.45
2023-05-05T03:06:16.560Z,3.47
2023-05-05T03:09:25.992Z,4.38
2023-05-05T03:15:40.996Z,2.95
2023-05-05T03:18:45.292Z,3.45
2023-05-05T03:21:49.064Z,3.15
2023-05-05T03:24:51.024Z,3.53
2023-05-05T03:27:53.020Z,3.05
2023-05-05T03:30:55.286Z,3.20
2023-05-05T03:33:57.360Z,3.47
2023-05-05T03:37:01.601Z,3.83
2023-05-05T03:40:03.899Z,3.67
2023-05-05T03:43:08.034Z,4.38
2023-05-05T03:46:09.855Z,3.65
2023-05-05T03:49:11.715Z,3.95
2023-05-05T03:52:15.206Z,3.83
2023-05-05T03:55:17.307Z,3.58
2023-05-05T03:58:21.999Z,3.60
2023-05-05T04:01:24.074Z,3.75
2023-05-05T04:04:26.216Z,3.92
2023-05-05T04:07:31.724Z,3.38
2023-05-05T04:10:33.913Z,3.50
2023-05-05T04:13:35.725Z,4.18
2023-05-05T04:16:37.628Z,3.22
2023-05-05T04:19:40.088Z,3.42
2023-05-05T04:22:43.619Z,3.78
2023-05-05T04:25:45.627Z,4.22
2023-05-05T04:28:48.824Z,3.90
2023-05-05T04:31:53.095Z,3.72
2023-05-05T04:34:56.498Z,4.13
2023-05-05T04:38:00.001Z,4.22
2023-05-05T04:41:05.157Z,3.55
2023-05-05T04:44:07.275Z,3.78
2023-05-05T04:47:09.363Z,3.67
2023-05-05T04:50:11.627Z,4.53
2023-05-05T04:53:14.897Z,4.72
2023-05-05T04:56:16.897Z,5.35
2023-05-05T04:59:18.729Z,5.60
2023-05-05T05:02:20.989Z,5.15
2023-05-05T05:05:25.365Z,5.05
2023-05-05T05:08:29.857Z,5.82
2023-05-05T05:11:32.776Z,5.05
2023-05-05T05:14:37.194Z,5.20
2023-05-05T05:17:39.470Z,5.22
2023-05-05T05:20:41.282Z,5.45
2023-05-05T05:23:44.486Z,5.10
2023-05-05T05:26:46.267Z,5.22
2023-05-05T05:29:48.164Z,5.20
2023-05-05T05:32:50.261Z,4.47
2023-05-05T05:35:52.067Z,4.88
2023-05-05T05:38:55.980Z,4.30
2023-05-05T05:41:58.090Z,4.35
2023-05-05T05:45:00.205Z,4.82
2023-05-05T05:48:02.054Z,4.50
2023-05-05T05:51:04.202Z,4.38
2023-05-05T05:54:07.559Z,5.70
2023-05-05T05:57:12.279Z,7.75
2023-05-05T06:00:17.443Z,6.53
2023-05-05T06:03:21.412Z,6.68
2023-05-05T06:06:24.321Z,7.40
2023-05-05T06:09:29.812Z,7.20
2023-05-05T06:12:31.571Z,6.57
2023-05-05T06:15:37.253Z,7.03
2023-05-05T06:18:39.974Z,6.70
2023-05-05T06:21:41.798Z,6.38
2023-05-05T06:24:45.200Z,7.28
2023-05-05T06:27:47.130Z,7.30
2023-05-05T06:30:48.949Z,7.40
2023-05-05T06:33:51.241Z,7.22
2023-05-05T06:36:53.659Z,6.63
2023-05-05T06:39:57.915Z,5.70
2023-05-05T06:42:59.926Z,5.70
2023-05-05T06:46:01.729Z,5.63
2023-05-05T06:49:03.480Z,5.68
2023-05-05T06:52:05.666Z,5.38
2023-05-05T06:55:10.029Z,5.13
2023-05-05T06:58:12.026Z,5.20
2023-05-05T07:01:13.818Z,5.40
2023-05-05T07:04:17.898Z,4.75
2023-05-05T07:07:19.745Z,5.57
2023-05-05T07:10:24.311Z,5.22
2023-05-05T07:13:26.100Z,4.90
2023-05-05T07:16:28.115Z,5.55
2023-05-05T07:19:32.650Z,4.97
2023-05-05T07:22:34.601Z,4.45
2023-05-05T07:25:38.612Z,4.53
2023-05-05T07:28:40.347Z,5.22
2023-05-05T07:31:42.303Z,4.90
2023-05-05T07:34:44.100Z,4.95
2023-05-05T07:37:45.969Z,4.38
2023-05-05T07:40:49.069Z,4.70
2023-05-05T07:43:50.861Z,4.03
2023-05-05T07:46:52.846Z,3.90
2023-05-05T07:49:54.841Z,3.70
2023-05-05T07:53:06.213Z,3.30
2023-05-05T07:56:19.273Z,2.78
2023-05-05T07:59:21.637Z,4.00
2023-05-05T08:02:24.199Z,3.30
2023-05-05T08:05:25.945Z,3.20
2023-05-05T08:08:27.733Z,3.50
2023-05-05T08:11:30.864Z,3.70
2023-05-05T08:14:34.746Z,3.45
2023-05-05T08:17:50.142Z,4.28
2023-05-05T08:20:54.166Z,3.88
2023-05-05T08:23:58.704Z,3.55
2023-05-05T08:27:02.116Z,3.95
2023-05-05T08:30:05.065Z,4.63
2023-05-05T08:33:09.225Z,4.47
2023-05-05T08:36:11.291Z,4.07
2023-05-05T08:39:13.588Z,4.13
2023-05-05T08:42:32.906Z,5.40
2023-05-05T08:45:40.620Z,4.50
2023-05-05T08:48:43.697Z,5.22
2023-05-05T08:51:46.837Z,5.28
2023-05-05T08:54:54.790Z,5.10
2023-05-05T08:58:01.652Z,5.38
2023-05-05T09:01:03.802Z,5.65
2023-05-05T09:04:05.813Z,5.15
2023-05-05T09:07:08.441Z,5.00
2023-05-05T09:10:11.889Z,5.13
2023-05-05T09:13:16.420Z,5.18
2023-05-05T09:16:18.459Z,5.35
2023-05-05T09:19:20.302Z,5.13
2023-05-05T09:22:33.405Z,5.40
2023-05-05T09:25:35.175Z,5.00
2023-05-05T09:28:38.836Z,5.53
2023-05-05T09:31:40.591Z,5.70
2023-05-05T09:34:43.694Z,5.18
2023-05-05T09:37:45.872Z,5.47
2023-05-05T09:40:49.013Z,5.07
2023-05-05T09:43:52.598Z,5.20
2023-05-05T09:46:54.757Z,5.50
2023-05-05T09:49:57.560Z,5.95
2023-05-05T09:53:01.263Z,5.68
2023-05-05T09:56:03.413Z,5.28
2023-05-05T09:59:12.170Z,5.82
2023-05-05T10:02:14.702Z,5.63
2023-05-05T10:05:18.304Z,5.80
2023-05-05T10:08:21.996Z,5.57
2023-05-05T10:11:25.400Z,5.47
2023-05-05T10:14:31.964Z,5.95
2023-05-05T10:18:02.758Z,5.97
2023-05-05T10:21:09.947Z,5.70
2023-05-05T10:24:16.950Z,5.93
2023-05-05T10:27:22.223Z,6.45
2023-05-05T10:30:29.550Z,6.18
2023-05-05T10:33:47.972Z,6.50
2023-05-05T10:36:51.190Z,6.57
2023-05-05T10:39:54.905Z,6.22
2023-05-05T10:42:58.232Z,7.55
2023-05-05T10:46:01.960Z,7.63
2023-05-05T10:49:13.356Z,7.35
2023-05-05T10:52:27.401Z,7.80
2023-05-05T10:55:39.802Z,8.35
2023-05-05T10:58:58.216Z,6.85
2023-05-05T11:02:18.404Z,8.48
2023-05-05T11:05:21.242Z,7.70
2023-05-05T11:08:29.399Z,6.25
2023-05-05T11:12:01.594Z,7.07
2023-05-05T11:15:37.269Z,6.50
2023-05-05T11:18:41.308Z,7.10
2023-05-05T11:22:00.584Z,6.97
2023-05-05T11:25:43.480Z,6.75
2023-05-05T11:28:59.526Z,7.80
2023-05-05T11:32:11.424Z,7.07
2023-05-05T11:35:14.872Z,6.97
2023-05-05T11:38:19.662Z,6.38
2023-05-05T11:41:44.980Z,7.07
2023-05-05T11:44:47.287Z,7.03
2023-05-05T11:47:49.161Z,7.22
2023-05-05T11:50:53.542Z,8.07
2023-05-05T11:53:59.148Z,7.80
2023-05-05T11:57:02.350Z,7.40
2023-05-05T12:00:06.705Z,10.13
2023-05-05T12:03:09.424Z,10.10
2023-05-05T12:06:13.418Z,11.00
2023-05-05T12:09:15.805Z,10.77
2023-05-05T12:12:17.893Z,10.13
2023-05-05T12:15:28.608Z,10.27
2023-05-05T12:18:31.642Z,10.02
2023-05-05T12:21:35.426Z,11.30
2023-05-05T12:24:38.124Z,9.38
2023-05-05T12:27:40.163Z,9.75
2023-05-05T12:30:42.218Z,8.82
2023-05-05T12:33:47.956Z,9.52
2023-05-05T12:36:53.780Z,9.75
2023-05-05T12:39:55.566Z,9.23
2023-05-05T12:42:57.259Z,8.60
2023-05-05T12:46:03.847Z,9.32
2023-05-05T12:49:07.130Z,9.13
2023-05-05T12:52:12.922Z,9.15
2023-05-05T12:55:14.714Z,8.63
2023-05-05T12:58:19.320Z,21.65
2023-05-05T13:01:23.299Z,8.00
2023-05-05T13:04:28.728Z,6.28
2023-05-05T13:07:32.601Z,7.03
2023-05-05T13:10:36.878Z,6.53
2023-05-05T13:13:38.672Z,5.88
2023-05-05T13:16:43.036Z,5.80
2023-05-05T13:19:44.789Z,6.40
2023-05-05T13:22:48.101Z,5.68
2023-05-05T13:25:50.075Z,5.88
2023-05-05T13:28:54.221Z,9.88
2023-05-05T13:31:57.719Z,9.80
2023-05-05T13:34:59.852Z,9.02
2023-05-05T13:38:03.502Z,9.70
2023-05-05T13:41:07.819Z,9.95
2023-05-05T13:44:11.248Z,8.73
2023-05-05T13:47:13.450Z,8.80
2023-05-05T13:50:15.478Z,8.88
2023-05-05T13:53:18.562Z,10.85
2023-05-05T13:56:23.169Z,10.90
2023-05-05T13:59:25.549Z,11.35
2023-05-05T14:02:28.298Z,11.43
2023-05-05T14:05:30.579Z,11.45
2023-05-05T14:08:33.799Z,12.02
2023-05-05T14:11:36.555Z,13.02
2023-05-05T14:14:38.334Z,13.13
2023-05-05T14:17:40.107Z,13.70
2023-05-05T14:20:42.392Z,12.70
2023-05-05T14:23:50.522Z,11.95
2023-05-05T14:26:53.481Z,12.48
2023-05-05T14:29:55.781Z,14.15
2023-05-05T14:32:58.264Z,13.40
2023-05-05T14:36:00.063Z,12.55
2023-05-05T14:39:04.693Z,12.27
2023-05-05T14:42:06.526Z,12.48
2023-05-05T14:45:09.425Z,12.90
2023-05-05T14:48:11.581Z,12.13
2023-05-05T14:51:15.151Z,13.23
2023-05-05T14:54:27.777Z,12.65
2023-05-05T14:57:30.971Z,13.07
2023-05-05T15:00:33.643Z,11.95
2023-05-05T15:03:36.397Z,12.40
2023-05-05T15:06:40.784Z,10.75
2023-05-05T15:09:45.309Z,11.00
2023-05-05T15:12:48.115Z,8.43
2023-05-05T15:15:49.979Z,6.45
2023-05-05T15:18:52.198Z,7.22
2023-05-05T15:21:53.962Z,8.15
2023-05-05T15:25:00.895Z,8.25
2023-05-05T15:28:05.182Z,9.07
2023-05-05T15:31:07.296Z,8.65
2023-05-05T15:34:09.493Z,10.30
2023-05-05T15:37:13.835Z,11.45
2023-05-05T15:40:17.457Z,10.73
2023-05-05T15:43:21.452Z,12.13
2023-05-05T15:46:25.799Z,11.07
2023-05-05T15:49:28.737Z,11.85
2023-05-05T15:52:30.975Z,10.68
2023-05-05T15:55:34.095Z,11.30
2023-05-05T15:58:35.736Z,10.60
2023-05-05T16:01:40.886Z,11.10
2023-05-05T16:04:44.075Z,10.52
2023-05-05T16:07:46.156Z,10.25
2023-05-05T16:10:50.164Z,10.02
2023-05-05T16:13:52.197Z,11.00
2023-05-05T16:16:54.147Z,10.23
2023-05-05T16:19:57.041Z,10.10
2023-05-05T16:22:59.177Z,10.60
2023-05-05T16:26:02.311Z,10.90
2023-05-05T16:29:04.509Z,9.98
2023-05-05T16:32:06.521Z,10.23
2023-05-05T16:35:08.946Z,9.75
2023-05-05T16:38:10.815Z,9.18
2023-05-05T16:41:14.724Z,9.05
2023-05-05T16:44:16.702Z,9.43
2023-05-05T16:47:18.408Z,8.77
2023-05-05T16:50:20.345Z,8.73
2023-05-05T16:53:23.069Z,8.02
2023-05-05T16:56:35.526Z,8.20
2023-05-05T16:59:37.907Z,8.18
2023-05-05T17:02:42.459Z,8.02
2023-05-05T17:05:44.772Z,7.55
2023-05-05T17:08:48.849Z,8.82
2023-05-05T17:11:52.339Z,7.55
2023-05-05T17:14:54.315Z,7.63
2023-05-05T17:17:56.097Z,6.60
2023-05-05T17:21:00.508Z,7.07
2023-05-05T17:24:02.225Z,7.28
2023-05-05T17:27:08.975Z,8.00
2023-05-05T17:30:11.472Z,7.80
2023-05-05T17:33:13.256Z,7.32
2023-05-05T17:36:15.256Z,7.07
2023-05-05T17:39:18.353Z,7.60
2023-05-05T17:42:24.033Z,6.78
2023-05-05T17:45:25.839Z,6.20
2023-05-05T17:48:30.391Z,7.20
2023-05-05T17:51:32.215Z,7.43
2023-05-05T17:54:34.646Z,7.60
2023-05-05T17:57:39.837Z,7.78
2023-05-05T18:00:41.894Z,7.38
2023-05-05T18:03:44.436Z,7.90
2023-05-05T18:06:49.159Z,7.85
2023-05-05T18:09:51.794Z,7.88
2023-05-05T18:12:59.177Z,7.38
2023-05-05T18:16:04.080Z,8.25
2023-05-05T18:19:09.449Z,7.20
2023-05-05T18:22:11.956Z,7.82
2023-05-05T18:25:15.724Z,7.35
2023-05-05T18:28:22.112Z,7.47
2023-05-05T18:31:24.361Z,7.25
2023-05-05T18:34:27.331Z,7.18
2023-05-05T18:37:33.218Z,6.20
2023-05-05T18:40:40.963Z,6.18
2023-05-05T18:43:53.340Z,6.03
2023-05-05T18:46:59.251Z,6.20
2023-05-05T18:50:01.985Z,6.25
2023-05-05T18:53:07.351Z,6.38
2023-05-05T18:56:11.029Z,6.72
2023-05-05T18:59:18.274Z,5.70
2023-05-05T19:02:20.683Z,5.57
2023-05-05T19:05:23.999Z,5.45
2023-05-05T19:08:31.508Z,5.47
2023-05-05T19:11:35.987Z,5.40
2023-05-05T19:14:42.417Z,5.30
2023-05-05T19:17:45.633Z,5.47
2023-05-05T19:20:49.164Z,5.60
2023-05-05T19:23:53.698Z,4.82
2023-05-05T19:26:57.520Z,5.15
2023-05-05T19:30:01.481Z,4.80
2023-05-05T19:33:04.655Z,4.88
2023-05-05T19:36:08.584Z,4.78
2023-05-05T19:39:15.739Z,5.20
2023-05-05T19:42:22.383Z,5.10
2023-05-05T19:45:35.080Z,5.05
2023-05-05T19:48:38.298Z,4.63
2023-05-05T19:51:45.381Z,4.93
2023-05-05T19:54:51.405Z,5.40
2023-05-05T19:57:57.287Z,4.53
2023-05-05T20:01:05.134Z,4.82
2023-05-05T20:04:10.204Z,5.00
2023-05-05T20:07:12.638Z,4.80
2023-05-05T20:10:16.845Z,4.50
2023-05-05T20:13:19.961Z,4.78
2023-05-05T20:16:24.763Z,5.10
2023-05-05T20:19:30.189Z,5.22
2023-05-05T20:22:32.567Z,4.82
2023-05-05T20:25:35.316Z,4.55
2023-05-05T20:28:41.802Z,4.97
2023-05-05T20:31:47.193Z,4.53
2023-05-05T20:34:52.310Z,4.50
2023-05-05T20:37:56.003Z,4.80
2023-05-05T20:40:58.446Z,5.22
2023-05-05T20:44:00.338Z,5.13
2023-05-05T20:47:09.690Z,5.00
2023-05-05T20:50:12.337Z,5.60
2023-05-05T20:53:16.681Z,5.60
2023-05-05T20:56:18.508Z,5.78
2023-05-05T20:59:20.452Z,5.35
2023-05-05T21:02:23.852Z,5.63
2023-05-05T21:05:28.161Z,5.75
2023-05-05T21:08:30.095Z,4.78
2023-05-05T21:11:31.848Z,5.93
2023-05-05T21:14:33.507Z,6.80
2023-05-05T21:17:45.033Z,6.13
2023-05-05T21:20:48.145Z,4.43
2023-05-05T21:23:49.984Z,2.40
2023-05-05T21:26:59.531Z,1.80
2023-05-05T21:30:05.212Z,1.40
2023-05-05T21:33:08.507Z,0.80
2023-05-05T21:36:10.284Z,1.00
2023-05-05T21:39:12.666Z,1.08
2023-05-05T21:42:16.428Z,1.00
2023-05-05T21:45:20.386Z,1.00
2023-05-05T21:48:26.621Z,1.02
2023-05-05T21:51:28.366Z,1.00
2023-05-05T21:54:31.476Z,1.20
2023-05-05T21:57:33.467Z,1.05
2023-05-05T22:00:35.673Z,1.13
2023-05-05T22:03:40.731Z,0.95
2023-05-05T22:06:44.105Z,1.23
2023-05-05T22:09:45.806Z,1.00
2023-05-05T22:12:47.680Z,1.00
2023-05-05T22:15:52.964Z,1.00
2023-05-05T22:18:57.682Z,1.00
2023-05-05T22:21:59.380Z,1.00
2023-05-05T22:25:03.371Z,1.00
2023-05-05T22:28:05.060Z,1.00
2023-05-05T22:31:06.934Z,1.10
2023-05-05T22:34:10.437Z,1.00
2023-05-05T22:37:12.258Z,1.05
2023-05-05T22:40:14.349Z,1.38
2023-05-05T22:43:18.233Z,1.20
2023-05-05T22:46:20.339Z,1.10
2023-05-05T22:49:23.422Z,1.08
2023-05-05T22:52:25.683Z,1.08
2023-05-05T22:55:28.706Z,1.20
2023-05-05T22:58:30.739Z,1.10
2023-05-05T23:01:34.993Z,1.50
2023-05-05T23:04:38.126Z,1.30
2023-05-05T23:07:40.540Z,1.42
2023-05-05T23:10:42.281Z,1.40
2023-05-05T23:13:45.558Z,1.58
2023-05-05T23:16:47.838Z,1.30
2023-05-05T23:19:50.937Z,1.23
2023-05-05T23:22:52.832Z,1.25
2023-05-05T23:25:57.056Z,1.35
2023-05-05T23:28:59.093Z,1.20
2023-05-05T23:32:00.871Z,1.40
2023-05-05T23:35:06.046Z,1.30
2023-05-05T23:38:09.559Z,1.10
2023-05-05T23:41:11.512Z,1.33
2023-05-05T23:44:13.359Z,1.40
2023-05-05T23:47:17.610Z,1.50
2023-05-05T23:50:21.134Z,1.60
2023-05-05T23:53:23.204Z,1.52
2023-05-05T23:56:25.287Z,1.63
2023-05-05T23:59:27.846Z,1.40
